createdAt,value
2018-10-01T00:01:00.178Z,3.50
2018-10-01T00:03:28.799Z,3.67
2018-10-01T00:05:57.640Z,3.90
2018-10-01T00:08:26.192Z,3.63
2018-10-01T00:10:54.947Z,3.53
2018-10-01T00:13:23.437Z,3.83
2018-10-01T00:15:51.980Z,3.80
2018-10-01T00:18:20.476Z,3.90
2018-10-01T00:20:54.329Z,3.90
2018-10-01T00:23:22.832Z,3.97
2018-10-01T00:25:51.340Z,3.93
2018-10-01T00:28:19.981Z,3.77
2018-10-01T00:30:48.504Z,3.80
2018-10-01T00:33:17.117Z,3.93
2018-10-01T00:35:45.998Z,3.53
2018-10-01T00:38:14.980Z,3.63
2018-10-01T00:40:43.460Z,3.90
2018-10-01T00:43:12.016Z,3.43
2018-10-01T00:45:40.555Z,3.90
2018-10-01T00:48:09.107Z,4.30
2018-10-01T00:50:37.730Z,4.03
2018-10-01T00:53:06.279Z,3.60
2018-10-01T00:55:34.765Z,3.47
2018-10-01T00:58:05.164Z,4.17
2018-10-01T01:00:33.731Z,3.90
2018-10-01T01:03:04.123Z,3.43
2018-10-01T01:05:32.687Z,3.67
2018-10-01T01:08:03.239Z,3.90
2018-10-01T01:10:31.801Z,3.23
2018-10-01T01:13:00.315Z,3.23
2018-10-01T01:15:28.842Z,3.43
2018-10-01T01:17:57.649Z,3.60
2018-10-01T01:20:32.600Z,3.47
2018-10-01T01:23:03.356Z,3.27
2018-10-01T01:25:31.874Z,2.93
2018-10-01T01:28:00.621Z,3.40
2018-10-01T01:30:29.115Z,2.97
2018-10-01T01:32:57.670Z,2.80
2018-10-01T01:35:26.407Z,2.93
2018-10-01T01:37:54.921Z,2.70
2018-10-01T01:40:23.409Z,2.53
2018-10-01T01:42:51.941Z,3.17
2018-10-01T01:45:20.442Z,3.10
2018-10-01T01:47:49.090Z,2.60
2018-10-01T01:50:17.631Z,2.50
2018-10-01T01:52:46.254Z,2.50
2018-10-01T01:55:14.784Z,2.83
2018-10-01T01:57:43.711Z,2.80
2018-10-01T02:00:12.237Z,2.83
2018-10-01T02:02:40.790Z,2.80
2018-10-01T02:05:09.412Z,2.67
2018-10-01T02:07:37.919Z,2.40
2018-10-01T02:10:06.475Z,2.30
2018-10-01T02:12:34.989Z,2.23
2018-10-01T02:15:05.705Z,2.20
2018-10-01T02:17:34.542Z,2.40
2018-10-01T02:20:05.088Z,2.30
2018-10-01T02:22:33.630Z,2.30
2018-10-01T02:25:04.229Z,2.83
2018-10-01T02:27:32.749Z,2.20
2018-10-01T02:30:03.467Z,2.40
2018-10-01T02:32:32.108Z,2.70
2018-10-01T02:35:00.636Z,2.30
2018-10-01T02:37:29.205Z,2.70
2018-10-01T02:39:57.757Z,2.63
2018-10-01T02:42:26.288Z,2.50
2018-10-01T02:44:54.811Z,2.17
2018-10-01T02:47:24.012Z,2.30
2018-10-01T02:49:52.514Z,2.70
2018-10-01T02:52:26.271Z,2.77
2018-10-01T02:54:55.751Z,2.30
2018-10-01T02:57:25.159Z,2.73
2018-10-01T02:59:53.646Z,2.30
2018-10-01T03:02:22.551Z,2.37
2018-10-01T03:04:51.077Z,2.10
2018-10-01T03:07:19.612Z,2.40
2018-10-01T03:09:54.986Z,2.20
2018-10-01T03:12:25.234Z,2.57
2018-10-01T03:14:56.587Z,2.07
2018-10-01T03:17:27.481Z,2.30
2018-10-01T03:20:00.366Z,2.10
2018-10-01T03:22:30.316Z,2.17
2018-10-01T03:24:59.426Z,1.90
2018-10-01T03:27:27.983Z,1.83
2018-10-01T03:29:56.503Z,2.33
2018-10-01T03:32:25.380Z,2.30
2018-10-01T03:34:54.086Z,1.93
2018-10-01T03:37:22.582Z,2.20
2018-10-01T03:39:51.161Z,2.50
2018-10-01T03:42:19.657Z,1.67
2018-10-01T03:44:48.455Z,1.77
2018-10-01T03:47:17.012Z,1.83
2018-10-01T03:49:45.558Z,2.07
2018-10-01T03:52:14.059Z,2.20
2018-10-01T03:54:42.582Z,1.97
2018-10-01T03:57:11.676Z,1.70
2018-10-01T03:59:40.589Z,1.70
2018-10-01T04:02:09.210Z,1.97
2018-10-01T04:04:37.741Z,1.60
2018-10-01T04:07:06.233Z,1.80
2018-10-01T04:09:34.749Z,1.80
2018-10-01T04:12:04.772Z,1.87
2018-10-01T04:14:33.354Z,1.63
2018-10-01T04:17:06.199Z,2.10
2018-10-01T04:19:34.692Z,1.80
2018-10-01T04:22:04.499Z,1.63
2018-10-01T04:24:33.058Z,2.10
2018-10-01T04:27:03.135Z,2.20
2018-10-01T04:29:31.690Z,2.07
2018-10-01T04:32:00.203Z,2.30
2018-10-01T04:34:28.749Z,2.10
2018-10-01T04:36:57.386Z,1.80
2018-10-01T04:39:25.936Z,1.93
2018-10-01T04:41:54.578Z,2.00
2018-10-01T04:44:23.091Z,2.20
2018-10-01T04:46:51.697Z,2.10
2018-10-01T04:49:20.131Z,2.53
2018-10-01T04:51:49.569Z,1.93
2018-10-01T04:54:18.157Z,2.00
2018-10-01T04:56:46.688Z,2.27
2018-10-01T04:59:15.183Z,2.40
2018-10-01T05:01:43.803Z,2.20
2018-10-01T05:04:12.312Z,2.60
2018-10-01T05:06:40.861Z,2.80
2018-10-01T05:09:10.300Z,2.40
2018-10-01T05:11:38.971Z,2.50
2018-10-01T05:14:08.295Z,2.63
2018-10-01T05:16:36.841Z,2.77
2018-10-01T05:19:05.785Z,2.37
2018-10-01T05:21:35.578Z,2.50
2018-10-01T05:24:05.229Z,2.23
2018-10-01T05:26:34.349Z,2.50
2018-10-01T05:29:04.638Z,2.47
2018-10-01T05:31:33.195Z,2.43
2018-10-01T05:34:02.804Z,2.80
2018-10-01T05:36:31.274Z,2.60
2018-10-01T05:38:59.800Z,2.63
2018-10-01T05:41:28.295Z,3.00
2018-10-01T05:43:57.148Z,2.60
2018-10-01T05:46:25.634Z,2.57
2018-10-01T05:48:54.127Z,2.23
2018-10-01T05:51:22.679Z,2.30
2018-10-01T05:53:51.304Z,2.67
2018-10-01T05:56:19.819Z,2.80
2018-10-01T05:58:48.452Z,2.50
2018-10-01T06:01:16.992Z,2.53
2018-10-01T06:03:45.494Z,2.60
2018-10-01T06:06:14.045Z,2.70
2018-10-01T06:08:42.586Z,2.50
2018-10-01T06:11:11.084Z,2.50
2018-10-01T06:13:39.590Z,2.60
2018-10-01T06:16:11.974Z,2.83
2018-10-01T06:18:40.512Z,2.63
2018-10-01T06:21:09.665Z,2.90
2018-10-01T06:23:38.136Z,2.60
2018-10-01T06:26:06.884Z,2.90
2018-10-01T06:28:35.884Z,2.47
2018-10-01T06:31:04.438Z,2.70
2018-10-01T06:33:33.492Z,2.10
2018-10-01T06:36:03.205Z,2.37
2018-10-01T06:38:31.772Z,2.50
2018-10-01T06:41:00.686Z,2.40
2018-10-01T06:43:29.270Z,2.70
2018-10-01T06:45:57.775Z,2.57
2018-10-01T06:48:26.283Z,2.53
2018-10-01T06:50:54.759Z,2.83
2018-10-01T06:53:23.385Z,2.40
2018-10-01T06:55:51.882Z,2.73
2018-10-01T06:58:20.434Z,2.77
2018-10-01T07:00:48.964Z,2.63
2018-10-01T07:03:17.602Z,2.93
2018-10-01T07:05:46.554Z,2.83
2018-10-01T07:08:15.125Z,2.93
2018-10-01T07:10:43.728Z,2.57
2018-10-01T07:13:12.250Z,2.90
2018-10-01T07:15:40.877Z,2.50
2018-10-01T07:18:09.369Z,2.57
2018-10-01T07:20:38.899Z,2.20
2018-10-01T07:23:07.542Z,2.40
2018-10-01T07:25:35.985Z,2.27
2018-10-01T07:28:05.265Z,2.30
2018-10-01T07:30:33.846Z,2.60
2018-10-01T07:33:04.502Z,1.80
2018-10-01T07:35:33.037Z,1.87
2018-10-01T07:38:02.669Z,1.80
2018-10-01T07:40:31.220Z,2.00
2018-10-01T07:42:59.761Z,1.97
2018-10-01T07:45:28.555Z,1.90
2018-10-01T07:47:57.871Z,1.77
2018-10-01T07:50:26.418Z,1.60
2018-10-01T07:52:55.403Z,2.23
2018-10-01T07:55:23.977Z,2.00
2018-10-01T07:57:52.473Z,2.17
2018-10-01T08:00:21.391Z,1.90
2018-10-01T08:02:49.898Z,1.90
2018-10-01T08:05:18.391Z,1.87
2018-10-01T08:07:46.975Z,1.73
2018-10-01T08:10:15.537Z,1.83
2018-10-01T08:12:44.086Z,1.93
2018-10-01T08:15:12.592Z,2.07
2018-10-01T08:17:41.126Z,1.60
2018-10-01T08:20:09.680Z,1.50
2018-10-01T08:22:38.161Z,1.70
2018-10-01T08:25:07.052Z,1.50
2018-10-01T08:27:35.583Z,1.57
2018-10-01T08:30:05.810Z,1.47
2018-10-01T08:32:34.296Z,1.97
2018-10-01T08:35:04.463Z,1.70
2018-10-01T08:37:33.227Z,1.97
2018-10-01T08:40:03.762Z,1.37
2018-10-01T08:42:32.267Z,1.40
2018-10-01T08:45:00.791Z,1.67
2018-10-01T08:47:29.527Z,1.60
2018-10-01T08:51:04.771Z,1.60
2018-10-01T08:53:37.850Z,1.33
2018-10-01T08:56:06.455Z,1.37
2018-10-01T08:58:35.143Z,1.47
2018-10-01T09:01:05.058Z,1.03
2018-10-01T09:03:33.601Z,1.50
2018-10-01T09:06:03.750Z,1.53
2018-10-01T09:08:32.287Z,1.23
2018-10-01T09:11:02.720Z,1.30
2018-10-01T09:13:31.240Z,1.43
2018-10-01T09:15:59.771Z,1.10
2018-10-01T09:18:28.247Z,1.20
2018-10-01T09:20:56.785Z,0.90
2018-10-01T09:23:25.373Z,1.10
2018-10-01T09:25:53.897Z,1.27
2018-10-01T09:28:22.400Z,1.07
2018-10-01T09:30:50.942Z,1.10
2018-10-01T09:33:19.486Z,1.07
2018-10-01T09:35:48.586Z,0.90
2018-10-01T09:38:21.434Z,1.13
2018-10-01T09:40:50.000Z,1.00
2018-10-01T09:43:18.494Z,1.23
2018-10-01T09:45:47.029Z,1.13
2018-10-01T09:48:15.551Z,1.00
2018-10-01T09:50:44.242Z,1.20
2018-10-01T09:53:12.745Z,1.20
2018-10-01T09:55:41.385Z,1.00
2018-10-01T09:58:10.300Z,0.90
2018-10-01T10:00:42.581Z,1.10
2018-10-01T10:03:11.782Z,1.00
2018-10-01T10:05:40.305Z,0.90
2018-10-01T10:08:08.898Z,1.10
2018-10-01T10:10:37.443Z,0.90
2018-10-01T10:13:05.989Z,0.97
2018-10-01T10:15:34.517Z,1.10
2018-10-01T10:18:04.979Z,1.33
2018-10-01T10:20:34.658Z,1.40
2018-10-01T10:23:04.775Z,1.30
2018-10-01T10:25:33.303Z,1.20
2018-10-01T10:28:02.878Z,1.63
2018-10-01T10:30:31.353Z,1.70
2018-10-01T10:32:59.933Z,1.30
2018-10-01T10:35:28.540Z,1.90
2018-10-01T10:37:57.067Z,1.90
2018-10-01T10:40:25.561Z,2.53
2018-10-01T10:42:54.068Z,1.37
2018-10-01T10:45:22.630Z,1.63
2018-10-01T10:47:51.149Z,1.73
2018-10-01T10:50:19.863Z,1.80
2018-10-01T10:52:48.720Z,1.63
2018-10-01T10:55:17.222Z,2.27
2018-10-01T10:57:45.757Z,2.37
2018-10-01T11:00:14.375Z,2.33
2018-10-01T11:02:42.865Z,2.00
2018-10-01T11:05:11.373Z,2.13
2018-10-01T11:07:39.994Z,1.93
2018-10-01T11:10:08.884Z,1.93
2018-10-01T11:12:37.414Z,1.90
2018-10-01T11:15:06.162Z,2.27
2018-10-01T11:17:34.528Z,1.57
2018-10-01T11:20:04.961Z,2.10
2018-10-01T11:22:33.737Z,2.10
2018-10-01T11:25:03.711Z,1.73
2018-10-01T11:27:32.231Z,2.07
2018-10-01T11:30:00.782Z,3.10
2018-10-01T11:32:30.298Z,2.53
2018-10-01T11:34:58.842Z,2.90
2018-10-01T11:37:27.326Z,2.40
2018-10-01T11:39:55.858Z,3.30
2018-10-01T11:42:24.426Z,2.17
2018-10-01T11:44:52.990Z,2.00
2018-10-01T11:47:21.486Z,1.80
2018-10-01T11:49:50.013Z,1.83
2018-10-01T11:52:18.565Z,2.50
2018-10-01T11:54:47.162Z,2.80
2018-10-01T11:57:16.193Z,2.73
2018-10-01T11:59:44.741Z,2.10
2018-10-01T12:02:13.292Z,2.07
2018-10-01T12:04:41.890Z,2.13
2018-10-01T12:07:17.011Z,1.97
2018-10-01T12:09:45.668Z,2.27
2018-10-01T12:12:14.165Z,2.17
2018-10-01T12:14:42.695Z,2.30
2018-10-01T12:17:11.229Z,2.00
2018-10-01T12:19:39.777Z,2.20
2018-10-01T12:22:08.374Z,2.13
2018-10-01T12:24:36.912Z,2.40
2018-10-01T12:27:05.839Z,2.10
2018-10-01T12:29:34.371Z,2.57
2018-10-01T12:32:04.186Z,2.37
2018-10-01T12:34:32.710Z,2.43
2018-10-01T12:37:03.737Z,2.73
2018-10-01T12:39:32.464Z,2.23
2018-10-01T12:42:00.962Z,2.10
2018-10-01T12:44:29.539Z,2.37
2018-10-01T12:46:58.546Z,2.23
2018-10-01T12:49:27.133Z,2.00
2018-10-01T12:51:55.635Z,2.50
2018-10-01T12:54:24.354Z,2.33
2018-10-01T12:56:52.961Z,2.17
2018-10-01T12:59:21.499Z,1.67
2018-10-01T13:01:50.005Z,1.10
2018-10-01T13:04:18.640Z,1.40
2018-10-01T13:06:47.687Z,1.07
2018-10-01T13:09:16.529Z,1.60
2018-10-01T13:11:49.000Z,1.30
2018-10-01T13:14:17.497Z,1.50
2018-10-01T13:16:46.094Z,1.73
2018-10-01T13:19:14.545Z,1.97
2018-10-01T13:21:43.035Z,2.17
2018-10-01T13:24:11.590Z,1.80
2018-10-01T13:26:40.174Z,2.03
2018-10-01T13:29:08.711Z,1.90
2018-10-01T13:31:37.818Z,2.20
2018-10-01T13:34:06.512Z,1.80
2018-10-01T13:36:35.071Z,1.90
2018-10-01T13:39:08.533Z,1.70
2018-10-01T13:41:37.175Z,1.73
2018-10-01T13:44:07.894Z,1.50
2018-10-01T13:46:36.938Z,1.70
2018-10-01T13:49:05.708Z,1.60
2018-10-01T13:51:34.302Z,1.60
2018-10-01T13:54:05.552Z,1.57
2018-10-01T13:56:34.065Z,2.23
2018-10-01T13:59:03.837Z,1.40
2018-10-01T14:01:32.504Z,1.60
2018-10-01T14:04:00.945Z,1.97
2018-10-01T14:06:29.592Z,1.87
2018-10-01T14:08:58.112Z,3.70
2018-10-01T14:11:26.716Z,2.07
2018-10-01T14:13:55.392Z,1.90
2018-10-01T14:16:24.177Z,2.20
2018-10-01T14:18:52.830Z,1.80
2018-10-01T14:21:21.502Z,1.50
2018-10-01T14:23:50.701Z,1.53
2018-10-01T14:26:19.224Z,1.60
2018-10-01T14:28:47.892Z,1.40
2018-10-01T14:31:16.699Z,1.80
2018-10-01T14:33:45.257Z,1.40
2018-10-01T14:36:13.817Z,1.37
2018-10-01T14:38:42.350Z,1.27
2018-10-01T14:41:10.913Z,1.33
2018-10-01T14:43:40.336Z,1.30
2018-10-01T14:46:09.074Z,1.47
2018-10-01T14:48:37.725Z,1.20
2018-10-01T14:51:06.334Z,1.43
2018-10-01T14:53:34.840Z,1.53
2018-10-01T14:56:07.689Z,1.27
2018-10-01T14:58:36.224Z,1.43
2018-10-01T15:01:05.118Z,1.50
2018-10-01T15:03:33.755Z,1.53
2018-10-01T15:06:04.080Z,1.70
2018-10-01T15:08:32.620Z,1.80
2018-10-01T15:11:03.121Z,2.87
2018-10-01T15:13:31.656Z,1.60
2018-10-01T15:16:00.163Z,1.60
2018-10-01T15:18:28.808Z,1.80
2018-10-01T15:20:57.342Z,2.20
2018-10-01T15:23:26.715Z,2.10
2018-10-01T15:25:55.365Z,1.90
2018-10-01T15:28:24.143Z,1.60
2018-10-01T15:30:52.674Z,1.47
2018-10-01T15:33:21.317Z,1.50
2018-10-01T15:35:49.889Z,1.57
2018-10-01T15:38:18.435Z,1.70
2018-10-01T15:40:46.994Z,1.70
2018-10-01T15:43:15.541Z,1.47
2018-10-01T15:45:45.106Z,1.80
2018-10-01T15:48:13.663Z,1.43
2018-10-01T15:50:42.197Z,1.40
2018-10-01T15:53:11.109Z,1.77
2018-10-01T15:55:39.983Z,1.50
2018-10-01T15:58:08.596Z,1.47
2018-10-01T16:00:38.402Z,1.60
2018-10-01T16:03:07.219Z,1.67
2018-10-01T16:05:35.691Z,1.10
2018-10-01T16:08:07.416Z,1.20
2018-10-01T16:10:35.910Z,0.90
2018-10-01T16:13:07.005Z,1.30
2018-10-01T16:15:35.595Z,1.20
2018-10-01T16:18:06.347Z,1.00
2018-10-01T16:20:36.612Z,1.20
2018-10-01T16:23:05.574Z,1.10
2018-10-01T16:25:34.520Z,1.40
2018-10-01T16:28:05.011Z,1.20
2018-10-01T16:30:33.602Z,1.47
2018-10-01T16:33:05.428Z,1.50
2018-10-01T16:35:34.100Z,1.40
2018-10-01T16:38:04.012Z,1.40
2018-10-01T16:40:32.729Z,1.50
2018-10-01T16:43:03.146Z,1.30
2018-10-01T16:45:32.031Z,2.00
2018-10-01T16:48:00.528Z,1.90
2018-10-01T16:50:30.543Z,1.57
2018-10-01T16:52:59.086Z,1.43
2018-10-01T16:55:27.617Z,1.90
2018-10-01T16:57:56.166Z,1.83
2018-10-01T17:00:25.077Z,2.17
2018-10-01T17:02:53.683Z,2.80
2018-10-01T17:05:22.271Z,2.13
2018-10-01T17:07:50.849Z,1.63
2018-10-01T17:10:20.136Z,2.30
2018-10-01T17:12:48.765Z,1.87
2018-10-01T17:15:17.359Z,2.50
2018-10-01T17:17:45.857Z,2.13
2018-10-01T17:20:14.404Z,2.20
2018-10-01T17:22:42.908Z,2.90
2018-10-01T17:25:11.434Z,1.70
2018-10-01T17:27:40.216Z,2.25
2018-10-01T17:30:10.429Z,2.00
2018-10-01T17:32:38.936Z,2.00
2018-10-01T17:35:07.495Z,2.13
2018-10-01T17:37:36.151Z,2.67
2018-10-01T17:40:05.369Z,2.47
2018-10-01T17:42:34.054Z,2.27
2018-10-01T17:45:05.074Z,1.97
2018-10-01T17:47:33.555Z,2.23
2018-10-01T17:50:07.852Z,2.50
2018-10-01T17:52:36.389Z,2.40
2018-10-01T17:55:05.203Z,2.00
2018-10-01T17:57:33.752Z,2.33
2018-10-01T18:00:06.908Z,2.53
2018-10-01T18:02:35.474Z,2.87
2018-10-01T18:05:06.021Z,2.20
2018-10-01T18:07:34.927Z,2.40
2018-10-01T18:10:07.731Z,2.40
2018-10-01T18:12:36.330Z,2.00
2018-10-01T18:15:07.507Z,2.30
2018-10-01T18:17:36.070Z,2.80
2018-10-01T18:20:06.719Z,2.77
2018-10-01T18:25:29.189Z,2.90
2018-10-01T18:27:57.673Z,3.00
2018-10-01T18:30:26.279Z,2.60
2018-10-01T18:32:54.856Z,2.60
2018-10-01T18:35:23.845Z,2.47
2018-10-01T18:37:52.417Z,2.83
2018-10-01T18:40:34.371Z,3.50
2018-10-01T18:43:08.778Z,2.53
2018-10-01T18:45:37.766Z,2.83
2018-10-01T18:48:07.295Z,2.57
2018-10-01T18:50:35.987Z,2.73
2018-10-01T18:53:06.767Z,2.90
2018-10-01T18:55:35.412Z,3.00
2018-10-01T18:58:06.893Z,3.47
2018-10-01T19:00:39.271Z,3.23
2018-10-01T19:03:07.856Z,3.43
2018-10-01T19:05:36.375Z,3.07
2018-10-01T19:08:06.417Z,3.20
2018-10-01T19:10:35.084Z,3.50
2018-10-01T19:13:06.468Z,4.33
2018-10-01T19:15:34.996Z,3.70
2018-10-01T19:18:07.104Z,4.53
2018-10-01T19:20:36.703Z,3.80
2018-10-01T19:23:06.297Z,3.70
2018-10-01T19:25:34.874Z,3.83
2018-10-01T19:28:06.254Z,3.87
2018-10-01T19:30:34.822Z,3.47
2018-10-01T19:33:05.498Z,4.77
2018-10-01T19:35:34.072Z,3.70
2018-10-01T19:38:04.083Z,3.80
2018-10-01T19:40:32.610Z,3.60
2018-10-01T19:43:03.300Z,3.73
2018-10-01T19:45:31.914Z,4.17
2018-10-01T19:48:00.510Z,4.10
2018-10-01T19:50:29.205Z,3.50
2018-10-01T19:52:57.839Z,3.40
2018-10-01T19:55:26.781Z,3.40
2018-10-01T19:57:55.294Z,4.10
2018-10-01T20:00:23.925Z,3.40
2018-10-01T20:02:52.614Z,3.70
2018-10-01T20:05:21.209Z,4.20
2018-10-01T20:07:49.693Z,3.80
2018-10-01T20:10:18.707Z,3.43
2018-10-01T20:12:47.822Z,3.47
2018-10-01T20:15:16.422Z,3.40
2018-10-01T20:17:44.946Z,3.00
2018-10-01T20:20:13.735Z,3.00
2018-10-01T20:22:42.272Z,3.80
2018-10-01T20:25:11.537Z,3.37
2018-10-01T20:27:40.164Z,3.97
2018-10-01T20:30:10.059Z,3.70
2018-10-01T20:32:41.344Z,4.00
2018-10-01T20:35:09.987Z,3.40
2018-10-01T20:37:38.485Z,4.03
2018-10-01T20:40:07.999Z,3.90
2018-10-01T20:42:36.590Z,3.27
2018-10-01T20:45:05.570Z,3.60
2018-10-01T20:47:34.493Z,3.80
2018-10-01T20:50:07.437Z,3.20
2018-10-01T20:52:36.446Z,3.70
2018-10-01T20:55:09.191Z,3.27
2018-10-01T20:57:39.970Z,3.60
2018-10-01T21:00:14.637Z,3.03
2018-10-01T21:02:43.573Z,2.80
2018-10-01T21:05:12.072Z,3.20
2018-10-01T21:07:40.645Z,3.37
2018-10-01T21:10:09.220Z,3.10
2018-10-01T21:12:37.708Z,3.43
2018-10-01T21:15:09.282Z,3.37
2018-10-01T21:17:38.500Z,2.93
2018-10-01T21:20:07.153Z,3.00
2018-10-01T21:22:35.743Z,2.80
2018-10-01T21:25:06.235Z,3.23
2018-10-01T21:27:34.866Z,2.77
2018-10-01T21:30:05.291Z,2.90
2018-10-01T21:32:33.850Z,3.70
2018-10-01T21:35:04.176Z,3.40
2018-10-01T21:37:32.705Z,3.13
2018-10-01T21:40:08.277Z,2.93
2018-10-01T21:42:36.816Z,3.93
2018-10-01T21:45:05.858Z,3.50
2018-10-01T21:47:34.649Z,3.30
2018-10-01T21:50:04.881Z,3.17
2018-10-01T21:52:33.488Z,3.00
2018-10-01T21:55:04.011Z,3.27
2018-10-01T21:57:32.656Z,3.70
2018-10-01T22:00:03.520Z,3.20
2018-10-01T22:02:32.059Z,3.10
2018-10-01T22:05:00.757Z,3.53
2018-10-01T22:07:29.310Z,3.40
2018-10-01T22:09:57.868Z,3.20
2018-10-01T22:12:26.413Z,4.07
2018-10-01T22:14:54.890Z,3.17
2018-10-01T22:17:23.465Z,2.80
2018-10-01T22:19:52.039Z,2.73
2018-10-01T22:22:20.965Z,2.90
2018-10-01T22:24:49.487Z,3.70
2018-10-01T22:27:18.020Z,3.23
2018-10-01T22:29:46.558Z,2.70
2018-10-01T22:32:15.111Z,3.20
2018-10-01T22:34:43.629Z,3.20
2018-10-01T22:37:12.397Z,3.20
2018-10-01T22:39:40.953Z,3.07
2018-10-01T22:42:09.505Z,3.33
2018-10-01T22:44:38.032Z,2.90
2018-10-01T22:47:06.743Z,3.37
2018-10-01T22:49:35.270Z,3.03
2018-10-01T22:52:06.152Z,3.63
2018-10-01T22:54:34.734Z,3.50
2018-10-01T22:57:04.895Z,3.10
2018-10-01T22:59:33.435Z,3.23
2018-10-01T23:02:04.090Z,3.37
2018-10-01T23:04:32.639Z,2.80
2018-10-01T23:07:02.751Z,3.43
2018-10-01T23:09:31.294Z,3.30
2018-10-01T23:11:59.792Z,2.97
2018-10-01T23:14:28.338Z,3.17
2018-10-01T23:16:56.982Z,3.40
2018-10-01T23:19:25.543Z,3.17
2018-10-01T23:21:54.077Z,2.37
2018-10-01T23:24:22.596Z,3.10
2018-10-01T23:26:51.182Z,2.97
2018-10-01T23:29:19.665Z,3.07
2018-10-01T23:31:48.266Z,3.83
2018-10-01T23:34:16.800Z,3.33
2018-10-01T23:36:45.696Z,3.23
2018-10-01T23:39:14.250Z,2.47
2018-10-01T23:41:42.817Z,2.53
2018-10-01T23:44:11.317Z,2.87
2018-10-01T23:46:39.853Z,3.03
2018-10-01T23:49:08.346Z,3.03
2018-10-01T23:51:36.914Z,2.80
2018-10-01T23:54:05.493Z,3.20
2018-10-01T23:56:33.960Z,3.00
2018-10-01T23:59:04.891Z,3.20
